Time;durP1;ratioP1;P1;durP2;ratioP2;P2;SDS_P1;SDS_P2;PMS_P1;PMS_P2;Temp;Humidity;BMP_temperature;BMP_pressure;BME280_temperature;BME280_humidity;BME280_pressure;Samples;Min_cycle;Max_cycle;Signal;HPM_P1;HPM_P2
2023/05/02 00:02:13;;;;;;;4.63;4.23;;;9.30;99.90;;;;;;5014889;28;20277;-39
2023/05/02 00:05:00;;;;;;;6.70;4.63;;;9.30;99.90;;;;;;4996492;28;20298;-37
2023/05/02 00:07:38;;;;;;;27.80;5.50;;;9.10;99.90;;;;;;4996227;28;20191;-37
2023/05/02 00:10:11;;;;;;;19.53;6.10;;;9.00;99.90;;;;;;4995834;28;20187;-41
2023/05/02 00:13:31;;;;;;;5.90;5.27;;;9.00;99.90;;;;;;5013554;28;20203;-37
2023/05/02 00:16:04;;;;;;;6.43;5.83;;;9.00;99.90;;;;;;4994592;28;20191;-36
2023/05/02 00:18:40;;;;;;;6.67;5.87;;;9.10;99.90;;;;;;5016013;28;20210;-37
2023/05/02 00:21:34;;;;;;;5.80;5.20;;;9.20;99.90;;;;;;5011730;28;20260;-36
2023/05/02 00:24:01;;;;;;;6.73;5.87;;;9.20;99.90;;;;;;5033482;28;20202;-38
2023/05/02 00:26:28;;;;;;;5.97;5.37;;;9.30;99.90;;;;;;4974151;28;20175;-37
2023/05/02 00:28:57;;;;;;;6.07;5.47;;;9.40;99.90;;;;;;4996096;28;20183;-38
2023/05/02 00:31:31;;;;;;;6.37;5.77;;;9.40;99.90;;;;;;5010284;28;20226;-39
2023/05/02 00:34:46;;;;;;;6.57;5.43;;;9.40;99.90;;;;;;5012054;28;20183;-40
2023/05/02 00:37:24;;;;;;;6.33;5.60;;;9.50;99.90;;;;;;5012786;28;20219;-39
2023/05/02 00:40:33;;;;;;;5.93;5.10;;;9.40;99.90;;;;;;5013579;28;20190;-39
2023/05/02 00:43:32;;;;;;;5.40;4.90;;;9.40;99.90;;;;;;5035204;28;20184;-38
2023/05/02 00:46:45;;;;;;;6.40;5.57;;;9.50;99.90;;;;;;4994921;28;20254;-40
2023/05/02 00:49:13;;;;;;;8.20;5.43;;;9.50;99.90;;;;;;5010926;28;20234;-39
2023/05/02 00:51:41;;;;;;;5.53;4.83;;;9.40;99.90;;;;;;5013031;28;20274;-37
2023/05/02 00:54:40;;;;;;;6.47;5.67;;;9.40;99.90;;;;;;4996380;28;20183;-36
2023/05/02 00:57:08;;;;;;;5.17;4.67;;;9.50;99.90;;;;;;5011078;28;20193;-37
2023/05/02 01:00:03;;;;;;;6.37;5.60;;;9.50;99.90;;;;;;4995358;28;20187;-37
2023/05/02 01:03:12;;;;;;;5.67;4.90;;;9.50;99.90;;;;;;5000983;28;20273;-39
2023/05/02 01:06:13;;;;;;;5.37;4.87;;;9.40;99.90;;;;;;4998068;28;20301;-36
2023/05/02 01:09:10;;;;;;;5.47;4.73;;;9.40;99.90;;;;;;5003468;28;20281;-38
2023/05/02 01:12:02;;;;;;;5.40;4.97;;;9.30;99.90;;;;;;4997353;28;20256;-40
2023/05/02 01:14:34;;;;;;;5.53;4.53;;;9.30;99.90;;;;;;4995511;28;20164;-37
2023/05/02 01:17:07;;;;;;;5.90;5.30;;;9.30;99.90;;;;;;5012031;28;20254;-37
2023/05/02 01:20:07;;;;;;;5.43;4.93;;;9.20;99.90;;;;;;4997557;28;20187;-36
2023/05/02 01:23:15;;;;;;;5.67;5.17;;;9.10;99.90;;;;;;4955871;28;20227;-37
2023/05/02 01:26:01;;;;;;;5.70;5.20;;;9.10;99.90;;;;;;4979004;28;20280;-38
2023/05/02 01:29:09;;;;;;;5.10;4.60;;;9.10;99.90;;;;;;5003870;28;20220;-39
2023/05/02 01:32:20;;;;;;;5.50;5.00;;;9.00;99.90;;;;;;4987064;28;20195;-39
2023/05/02 01:34:51;;;;;;;5.73;5.23;;;9.00;99.90;;;;;;4973571;28;20196;-37
2023/05/02 01:37:19;;;;;;;5.63;4.83;;;8.90;99.90;;;;;;5015858;28;20179;-38
2023/05/02 01:39:55;;;;;;;6.00;4.80;;;8.90;99.90;;;;;;5015233;28;20186;-39
2023/05/02 01:42:26;;;;;;;5.63;5.10;;;8.80;99.90;;;;;;4998676;28;20222;-39
2023/05/02 01:44:55;;;;;;;5.67;5.10;;;8.70;99.90;;;;;;4998286;28;20209;-38
2023/05/02 01:47:29;;;;;;;5.27;4.77;;;8.70;99.90;;;;;;4993368;28;20184;-40
2023/05/02 01:50:10;;;;;;;6.67;4.93;;;8.70;99.90;;;;;;4998597;28;20183;-39
2023/05/02 01:53:07;;;;;;;6.27;5.40;;;8.80;99.90;;;;;;5012666;28;20214;-37
2023/05/02 01:55:55;;;;;;;6.00;5.47;;;8.70;99.90;;;;;;5014554;28;20190;-37
2023/05/02 01:58:26;;;;;;;6.10;5.50;;;8.60;99.90;;;;;;5014467;28;20318;-38
2023/05/02 02:01:23;;;;;;;6.00;5.43;;;8.60;99.90;;;;;;4997187;28;20191;-37
2023/05/02 02:04:21;;;;;;;5.87;5.27;;;8.50;99.90;;;;;;4989666;28;20172;-36
2023/05/02 02:07:10;;;;;;;6.63;6.03;;;8.60;99.90;;;;;;5011073;28;20263;-36
2023/05/02 02:09:59;;;;;;;7.13;5.63;;;8.60;99.90;;;;;;5019363;28;20179;-37
2023/05/02 02:13:18;;;;;;;6.07;5.53;;;8.60;99.90;;;;;;5005497;28;20213;-37
2023/05/02 02:16:21;;;;;;;7.77;6.97;;;8.50;99.90;;;;;;5010973;28;20238;-37
2023/05/02 02:19:02;;;;;;;7.60;6.50;;;8.50;99.90;;;;;;5000621;28;20186;-37
2023/05/02 02:21:31;;;;;;;7.60;6.87;;;8.50;99.90;;;;;;4989216;28;20245;-37
2023/05/02 02:24:13;;;;;;;8.00;6.93;;;8.60;99.90;;;;;;4980093;28;20226;-39
2023/05/02 02:26:41;;;;;;;7.13;6.50;;;8.60;99.90;;;;;;4986931;28;20191;-40
2023/05/02 02:29:08;;;;;;;7.23;5.83;;;8.50;99.90;;;;;;4981792;28;20175;-37
2023/05/02 02:31:42;;;;;;;7.73;6.50;;;8.50;99.90;;;;;;4998244;28;20199;-37
2023/05/02 02:34:13;;;;;;;7.07;6.43;;;8.40;99.90;;;;;;5015362;28;20165;-37
2023/05/02 02:37:17;;;;;;;6.67;6.07;;;8.40;99.90;;;;;;5014699;28;20183;-37
2023/05/02 02:40:24;;;;;;;6.33;5.73;;;8.40;99.90;;;;;;4961753;28;20348;-36
2023/05/02 02:43:32;;;;;;;6.77;6.07;;;8.40;99.90;;;;;;5017969;28;20207;-37
2023/05/02 02:46:45;;;;;;;7.23;6.53;;;8.30;99.90;;;;;;5004412;28;20766;-36
2023/05/02 02:49:39;;;;;;;6.60;6.00;;;8.40;99.90;;;;;;4993517;28;20183;-38
2023/05/02 02:52:27;;;;;;;9.23;6.60;;;8.30;99.90;;;;;;5002729;28;20293;-37
2023/05/02 02:55:14;;;;;;;6.93;6.23;;;8.40;99.90;;;;;;5028475;28;20186;-38
2023/05/02 02:57:47;;;;;;;8.03;6.07;;;8.30;99.90;;;;;;4981899;28;20191;-39
2023/05/02 03:00:50;;;;;;;6.60;6.00;;;8.20;99.90;;;;;;5002513;28;20178;-39
2023/05/02 03:03:33;;;;;;;7.63;6.67;;;8.20;99.90;;;;;;4998867;28;20193;-37
2023/05/02 03:06:06;;;;;;;6.93;6.23;;;8.10;99.90;;;;;;4983786;28;20274;-38
2023/05/02 03:08:58;;;;;;;6.43;5.83;;;8.00;99.90;;;;;;4997686;28;20192;-38
2023/05/02 03:11:35;;;;;;;7.90;6.40;;;8.00;99.90;;;;;;5013708;28;20214;-38
2023/05/02 03:14:12;;;;;;;7.67;5.90;;;8.00;99.90;;;;;;5013391;28;20195;-39
2023/05/02 03:16:42;;;;;;;6.73;5.67;;;7.90;99.90;;;;;;4994711;28;20269;-37
2023/05/02 03:19:47;;;;;;;7.30;5.53;;;7.90;99.90;;;;;;4998009;28;20206;-39
2023/05/02 03:22:17;;;;;;;6.20;5.63;;;7.90;99.90;;;;;;4993998;28;20192;-38
2023/05/02 03:24:47;;;;;;;5.70;5.20;;;7.90;99.90;;;;;;5029660;28;20211;-37
2023/05/02 03:27:19;;;;;;;6.57;5.97;;;7.80;99.90;;;;;;4996574;28;20190;-37
2023/05/02 03:29:51;;;;;;;6.27;5.67;;;7.80;99.90;;;;;;4993209;28;20187;-39
2023/05/02 03:32:25;;;;;;;5.87;5.37;;;7.80;99.90;;;;;;5011713;28;20198;-37
2023/05/02 03:35:54;;;;;;;6.63;6.03;;;7.70;99.90;;;;;;4980161;28;20259;-36
2023/05/02 03:38:39;;;;;;;7.57;6.87;;;7.70;99.90;;;;;;4973444;28;20191;-37
2023/05/02 03:41:19;;;;;;;7.30;6.60;;;7.60;99.90;;;;;;5018708;28;20224;-37
2023/05/02 03:44:00;;;;;;;8.37;7.57;;;7.60;99.90;;;;;;5013687;28;20270;-36
2023/05/02 03:46:29;;;;;;;8.30;7.50;;;7.60;99.90;;;;;;4994135;28;20179;-36
2023/05/02 03:49:00;;;;;;;8.20;7.40;;;7.60;99.90;;;;;;4977873;28;20192;-37
2023/05/02 03:51:34;;;;;;;8.10;7.40;;;7.60;99.90;;;;;;5028131;28;20203;-38
2023/05/02 03:54:51;;;;;;;9.13;8.33;;;7.70;99.90;;;;;;4996888;28;20191;-37
2023/05/02 03:57:29;;;;;;;8.37;7.57;;;7.70;99.90;;;;;;5011526;28;20254;-39
2023/05/02 03:59:57;;;;;;;9.50;8.60;;;7.80;99.90;;;;;;4975750;28;20660;-39
2023/05/02 04:02:28;;;;;;;8.80;8.00;;;7.90;99.90;;;;;;4987761;28;20253;-36
2023/05/02 04:04:57;;;;;;;8.70;7.90;;;8.00;99.90;;;;;;4988969;28;20203;-39
2023/05/02 04:07:25;;;;;;;8.07;7.27;;;8.00;99.90;;;;;;4997935;28;20187;-38
2023/05/02 04:09:59;;;;;;;8.53;7.63;;;8.00;99.90;;;;;;5011542;28;20178;-37
2023/05/02 04:12:26;;;;;;;8.53;7.73;;;8.10;99.90;;;;;;4987449;28;20206;-38
2023/05/02 04:14:57;;;;;;;9.30;8.07;;;8.20;99.90;;;;;;4995836;28;20218;-38
2023/05/02 04:17:27;;;;;;;9.00;8.10;;;8.30;99.90;;;;;;4992661;28;20182;-36
2023/05/02 04:19:52;;;;;;;8.63;7.73;;;8.30;99.90;;;;;;4968991;28;20254;-36
2023/05/02 04:22:26;;;;;;;8.47;7.67;;;8.40;99.90;;;;;;4985868;28;20249;-36
2023/05/02 04:24:57;;;;;;;8.50;7.70;;;8.40;99.90;;;;;;4973862;28;20215;-37
2023/05/02 04:27:25;;;;;;;8.83;8.03;;;8.50;99.90;;;;;;4992046;28;20267;-36
2023/05/02 04:29:52;;;;;;;8.60;7.80;;;8.50;99.90;;;;;;5023101;28;20183;-36
2023/05/02 04:32:19;;;;;;;8.43;7.60;;;8.60;99.90;;;;;;4974906;28;20196;-36
2023/05/02 04:34:46;;;;;;;9.27;7.77;;;8.60;99.90;;;;;;5023152;28;20183;-38
2023/05/02 04:37:12;;;;;;;8.83;7.03;;;8.70;99.90;;;;;;4984854;28;20246;-36
2023/05/02 04:39:41;;;;;;;7.30;6.60;;;8.70;99.90;;;;;;5006328;28;20186;-36
2023/05/02 04:42:15;;;;;;;7.47;6.73;;;8.80;99.90;;;;;;5019884;28;20227;-36
2023/05/02 04:44:49;;;;;;;9.00;8.20;;;8.80;99.90;;;;;;5020916;28;20210;-37
2023/05/02 04:47:16;;;;;;;8.43;7.73;;;8.70;99.90;;;;;;5020834;28;20180;-36
2023/05/02 04:49:44;;;;;;;9.23;8.33;;;8.70;99.90;;;;;;5008450;28;20235;-36
2023/05/02 04:52:09;;;;;;;8.27;7.43;;;8.70;99.90;;;;;;4982335;28;20290;-37
2023/05/02 04:54:36;;;;;;;7.50;6.80;;;8.70;99.90;;;;;;5021243;28;20455;-37
2023/05/02 04:57:02;;;;;;;7.10;6.40;;;8.70;99.90;;;;;;4990469;28;20191;-36
2023/05/02 04:59:31;;;;;;;6.83;6.13;;;8.80;99.90;;;;;;4981204;28;20181;-36
2023/05/02 05:01:59;;;;;;;6.40;5.80;;;8.80;99.90;;;;;;4984320;28;20305;-36
2023/05/02 05:04:24;;;;;;;7.80;6.33;;;8.70;99.90;;;;;;4997104;28;20223;-36
2023/05/02 05:06:51;;;;;;;6.40;5.80;;;8.70;99.90;;;;;;5002087;28;20189;-37
2023/05/02 05:09:18;;;;;;;6.73;6.13;;;8.70;99.90;;;;;;4975830;28;20203;-38
2023/05/02 05:11:45;;;;;;;7.17;6.47;;;8.80;99.90;;;;;;4987927;28;20287;-38
2023/05/02 05:14:12;;;;;;;6.77;6.03;;;8.70;99.90;;;;;;5020617;28;20275;-36
2023/05/02 05:16:41;;;;;;;7.70;6.77;;;8.70;99.90;;;;;;4997294;28;20184;-37
2023/05/02 05:19:06;;;;;;;6.67;6.07;;;8.70;99.90;;;;;;4990635;28;20191;-36
2023/05/02 05:21:33;;;;;;;6.50;5.90;;;8.80;99.90;;;;;;5025607;28;20195;-36
2023/05/02 05:24:01;;;;;;;6.37;5.77;;;8.80;99.90;;;;;;4984894;28;20195;-36
2023/05/02 05:26:28;;;;;;;8.53;6.30;;;8.80;99.90;;;;;;4972736;28;20670;-36
2023/05/02 05:28:55;;;;;;;6.47;5.20;;;8.90;99.90;;;;;;5007563;28;20183;-37
2023/05/02 05:31:24;;;;;;;5.80;5.20;;;8.90;99.90;;;;;;5011884;28;20203;-38
2023/05/02 05:33:53;;;;;;;6.67;6.00;;;8.90;99.90;;;;;;4987650;28;20193;-36
2023/05/02 05:36:21;;;;;;;5.77;5.20;;;8.90;99.90;;;;;;4969054;28;20184;-39
2023/05/02 05:38:47;;;;;;;6.83;6.07;;;8.90;99.90;;;;;;5019508;28;20184;-38
2023/05/02 05:41:13;;;;;;;5.90;5.40;;;9.00;99.90;;;;;;5024587;28;20550;-38
2023/05/02 05:43:43;;;;;;;6.37;5.77;;;9.00;99.90;;;;;;4981334;28;20180;-37
2023/05/02 05:46:09;;;;;;;6.73;6.10;;;9.10;99.90;;;;;;4997709;28;20215;-37
2023/05/02 05:48:36;;;;;;;6.70;6.10;;;9.10;99.90;;;;;;5022765;28;20188;-36
2023/05/02 05:51:06;;;;;;;7.00;6.23;;;9.10;99.90;;;;;;4981277;28;20207;-38
2023/05/02 05:53:32;;;;;;;6.93;6.10;;;9.20;99.90;;;;;;5002047;28;20199;-36
2023/05/02 05:56:08;;;;;;;6.13;5.63;;;9.20;99.90;;;;;;4990594;28;20244;-40
2023/05/02 05:58:33;;;;;;;6.30;5.70;;;9.20;99.90;;;;;;4983660;28;20199;-38
2023/05/02 06:01:00;;;;;;;7.20;6.50;;;9.20;99.90;;;;;;4976298;28;20235;-38
2023/05/02 06:03:25;;;;;;;6.40;5.80;;;9.20;99.90;;;;;;4986938;28;20271;-42
2023/05/02 06:05:51;;;;;;;7.33;6.63;;;9.20;99.90;;;;;;4977186;28;20346;-38
2023/05/02 06:08:17;;;;;;;7.57;6.87;;;9.30;99.90;;;;;;5009339;28;20192;-40
2023/05/02 06:10:43;;;;;;;8.37;6.97;;;9.20;99.90;;;;;;4992738;28;20263;-38
2023/05/02 06:13:08;;;;;;;7.63;6.90;;;9.20;99.90;;;;;;5009655;28;20251;-40
2023/05/02 06:15:38;;;;;;;8.60;7.80;;;9.20;99.90;;;;;;5007132;28;20187;-39
2023/05/02 06:18:05;;;;;;;8.27;7.47;;;9.30;99.90;;;;;;4976682;28;20274;-40
2023/05/02 06:20:31;;;;;;;8.80;7.90;;;9.40;99.90;;;;;;5023022;28;20211;-38
2023/05/02 06:22:58;;;;;;;9.33;8.30;;;9.40;99.90;;;;;;5009227;28;20211;-40
2023/05/02 06:25:23;;;;;;;8.53;7.30;;;9.50;99.90;;;;;;5028553;28;20203;-37
2023/05/02 06:27:49;;;;;;;10.40;8.80;;;9.60;99.90;;;;;;4998449;28;20188;-37
2023/05/02 06:30:15;;;;;;;12.83;9.00;;;9.60;99.90;;;;;;4993161;28;20188;-38
2023/05/02 06:32:42;;;;;;;10.53;9.27;;;9.60;99.90;;;;;;4997695;28;20200;-39
2023/05/02 06:35:11;;;;;;;10.10;8.53;;;9.60;99.90;;;;;;4992224;28;20196;-36
2023/05/02 06:37:36;;;;;;;9.47;8.37;;;9.70;99.90;;;;;;5006427;28;20191;-37
2023/05/02 06:40:03;;;;;;;13.67;8.63;;;9.70;99.90;;;;;;4974680;28;20184;-40
2023/05/02 06:42:30;;;;;;;8.67;7.87;;;9.70;99.90;;;;;;4974705;28;20215;-39
2023/05/02 06:44:57;;;;;;;8.67;7.77;;;9.70;99.90;;;;;;5010588;28;20214;-37
2023/05/02 06:47:24;;;;;;;9.07;8.17;;;9.80;99.90;;;;;;5025838;28;20267;-40
2023/05/02 06:49:51;;;;;;;8.87;8.07;;;9.70;99.90;;;;;;5007030;28;20187;-37
2023/05/02 06:52:17;;;;;;;8.53;7.73;;;9.70;99.90;;;;;;5000867;28;20262;-39
2023/05/02 06:54:43;;;;;;;9.43;8.53;;;9.80;99.90;;;;;;5007157;28;20184;-38
2023/05/02 06:57:09;;;;;;;8.57;7.77;;;9.80;99.90;;;;;;4995184;28;20227;-36
2023/05/02 06:59:35;;;;;;;7.90;7.17;;;9.80;99.90;;;;;;5006432;28;20179;-37
2023/05/02 07:02:01;;;;;;;11.03;8.67;;;9.90;99.90;;;;;;4994815;28;20211;-38
2023/05/02 07:04:27;;;;;;;8.40;7.50;;;9.90;99.90;;;;;;5024667;28;20212;-40
2023/05/02 07:06:53;;;;;;;9.30;8.33;;;10.00;99.90;;;;;;5021250;28;20223;-39
2023/05/02 07:09:19;;;;;;;8.90;8.03;;;10.00;99.90;;;;;;5000961;28;20255;-40
2023/05/02 07:11:44;;;;;;;10.30;9.13;;;10.10;99.90;;;;;;5007842;28;20574;-37
2023/05/02 07:14:10;;;;;;;10.63;9.53;;;10.20;99.90;;;;;;5014830;28;20190;-40
2023/05/02 07:16:36;;;;;;;9.30;8.40;;;10.20;99.90;;;;;;4997194;28;20191;-37
2023/05/02 07:19:03;;;;;;;9.70;8.43;;;10.30;99.90;;;;;;4992107;28;20264;-38
2023/05/02 07:21:29;;;;;;;10.10;9.10;;;10.40;99.90;;;;;;5024296;28;20196;-39
2023/05/02 07:23:56;;;;;;;9.37;8.43;;;10.40;99.90;;;;;;4985897;28;20187;-38
2023/05/02 07:26:23;;;;;;;10.17;9.03;;;10.50;99.90;;;;;;4993004;28;20303;-36
2023/05/02 07:28:48;;;;;;;10.17;9.03;;;10.60;99.90;;;;;;4991148;28;20185;-39
2023/05/02 07:31:14;;;;;;;11.57;9.80;;;10.70;99.90;;;;;;4979965;28;20214;-38
2023/05/02 07:33:40;;;;;;;11.03;9.50;;;10.80;99.90;;;;;;5005386;28;20275;-37
2023/05/02 07:36:06;;;;;;;9.67;8.57;;;10.90;99.90;;;;;;4975341;28;20193;-39
2023/05/02 07:38:32;;;;;;;10.37;9.33;;;11.00;99.90;;;;;;5012236;28;20180;-38
2023/05/02 07:40:58;;;;;;;10.10;9.10;;;11.10;99.90;;;;;;4994497;28;20254;-38
2023/05/02 07:43:25;;;;;;;10.70;9.00;;;11.10;99.90;;;;;;4982310;28;20184;-38
2023/05/02 07:45:51;;;;;;;10.00;9.00;;;11.20;99.90;;;;;;4987306;28;20233;-41
2023/05/02 07:48:17;;;;;;;9.97;8.97;;;11.30;99.90;;;;;;5007371;28;20185;-42
2023/05/02 07:50:44;;;;;;;12.00;9.17;;;11.30;99.90;;;;;;5013216;28;20172;-39
2023/05/02 07:53:11;;;;;;;9.33;8.43;;;11.40;99.90;;;;;;4968337;28;20189;-38
2023/05/02 07:55:37;;;;;;;10.73;9.23;;;11.50;99.90;;;;;;5012455;28;20200;-41
2023/05/02 07:58:03;;;;;;;9.53;8.60;;;11.60;99.90;;;;;;5010323;28;20187;-40
2023/05/02 08:00:29;;;;;;;9.33;8.33;;;11.70;99.90;;;;;;4982340;28;20195;-39
2023/05/02 08:02:55;;;;;;;10.43;9.33;;;11.70;99.90;;;;;;5006405;28;20267;-38
2023/05/02 08:05:21;;;;;;;9.80;8.87;;;11.80;99.90;;;;;;5008366;28;20208;-39
2023/05/02 08:07:47;;;;;;;9.80;8.80;;;11.90;99.90;;;;;;4986027;28;20298;-39
2023/05/02 08:10:13;;;;;;;8.83;8.03;;;11.90;99.90;;;;;;4992141;28;20263;-39
2023/05/02 08:12:39;;;;;;;9.13;8.27;;;12.00;99.90;;;;;;4990920;28;20230;-38
2023/05/02 08:15:07;;;;;;;10.27;9.27;;;12.10;99.90;;;;;;4989919;28;20202;-42
2023/05/02 08:17:33;;;;;;;10.73;9.13;;;12.10;99.90;;;;;;5012188;28;20222;-40
2023/05/02 08:20:00;;;;;;;9.90;8.90;;;12.20;99.90;;;;;;4992190;28;20203;-38
2023/05/02 08:22:25;;;;;;;10.03;9.10;;;12.30;99.90;;;;;;4998346;28;20283;-37
2023/05/02 08:24:51;;;;;;;11.17;10.07;;;12.40;99.90;;;;;;5014523;28;20287;-40
2023/05/02 08:27:17;;;;;;;10.40;9.40;;;12.50;99.90;;;;;;4982444;28;20201;-39
2023/05/02 08:29:43;;;;;;;14.20;11.27;;;12.60;99.90;;;;;;4993883;28;20193;-38
2023/05/02 08:32:09;;;;;;;11.00;9.63;;;12.70;99.90;;;;;;5024796;28;20218;-37
2023/05/02 08:34:35;;;;;;;13.07;11.07;;;12.80;99.90;;;;;;4974187;28;20187;-41
2023/05/02 08:37:06;;;;;;;13.60;12.17;;;12.90;99.90;;;;;;5005477;28;20238;-37
2023/05/02 08:39:32;;;;;;;13.97;12.57;;;13.00;99.90;;;;;;4979673;28;20184;-43
2023/05/02 08:41:58;;;;;;;13.97;12.47;;;13.00;99.90;;;;;;5029148;28;20210;-37
2023/05/02 08:44:24;;;;;;;12.27;11.03;;;13.00;99.90;;;;;;4993243;28;20179;-40
2023/05/02 08:46:52;;;;;;;12.17;10.97;;;13.10;99.90;;;;;;4978774;28;20187;-37
2023/05/02 08:49:19;;;;;;;15.87;13.30;;;13.30;99.90;;;;;;5006262;28;20286;-37
2023/05/02 08:51:50;;;;;;;15.27;12.23;;;13.50;99.90;;;;;;4999679;28;20266;-38
2023/05/02 08:54:17;;;;;;;16.63;14.80;;;13.50;99.90;;;;;;4998246;28;20191;-38
2023/05/02 08:56:43;;;;;;;16.30;14.57;;;13.70;99.90;;;;;;4973883;28;20183;-40
2023/05/02 08:59:09;;;;;;;14.33;12.93;;;13.60;99.90;;;;;;4985962;28;20183;-38
2023/05/02 09:01:38;;;;;;;15.30;13.70;;;13.70;99.90;;;;;;5002630;28;20203;-37
2023/05/02 09:04:04;;;;;;;15.03;13.53;;;13.90;99.90;;;;;;4976417;28;20188;-40
2023/05/02 09:06:29;;;;;;;14.03;12.57;;;14.00;99.90;;;;;;5016075;28;20276;-37
2023/05/02 09:08:59;;;;;;;14.97;13.40;;;14.20;99.90;;;;;;4985431;28;20198;-37
2023/05/02 09:11:25;;;;;;;14.67;13.17;;;14.50;99.90;;;;;;4989681;28;20195;-38
2023/05/02 09:13:51;;;;;;;15.93;14.33;;;14.70;99.90;;;;;;5001891;28;20229;-37
2023/05/02 09:16:25;;;;;;;15.07;13.57;;;15.00;99.90;;;;;;4998860;28;20287;-40
2023/05/02 09:18:53;;;;;;;14.30;12.80;;;15.10;99.90;;;;;;4990013;28;20250;-40
2023/05/02 09:21:24;;;;;;;16.77;14.97;;;15.10;99.90;;;;;;5014545;28;20215;-38
2023/05/02 09:23:52;;;;;;;17.20;15.40;;;15.20;99.90;;;;;;4991191;28;20230;-40
2023/05/02 09:26:25;;;;;;;18.33;16.27;;;15.10;99.90;;;;;;4997583;28;20214;-38
2023/05/02 09:28:54;;;;;;;17.80;16.00;;;15.40;99.90;;;;;;4974498;28;20186;-38
2023/05/02 09:31:25;;;;;;;18.53;16.10;;;15.50;99.90;;;;;;4982793;28;20215;-40
2023/05/02 09:33:52;;;;;;;19.53;16.93;;;15.60;99.90;;;;;;4977734;28;20184;-39
2023/05/02 09:36:20;;;;;;;20.13;17.73;;;15.70;99.90;;;;;;4988274;28;20197;-40
2023/05/02 09:38:48;;;;;;;18.57;16.57;;;15.80;99.90;;;;;;4997662;28;20188;-38
2023/05/02 09:41:14;;;;;;;16.93;14.87;;;16.00;99.90;;;;;;5010391;28;20205;-39
2023/05/02 09:43:41;;;;;;;19.17;16.90;;;16.10;99.90;;;;;;4993673;28;20183;-40
2023/05/02 09:46:08;;;;;;;22.53;20.13;;;16.10;99.90;;;;;;5009944;28;20237;-38
2023/05/02 09:48:54;;;;;;;19.83;17.73;;;16.20;99.90;;;;;;5019654;28;20279;-38
2023/05/02 09:51:22;;;;;;;23.47;20.93;;;16.40;99.90;;;;;;5027564;28;20199;-38
2023/05/02 09:53:48;;;;;;;20.63;18.43;;;16.00;99.90;;;;;;5005097;28;20183;-39
2023/05/02 09:56:14;;;;;;;21.13;18.93;;;16.00;99.90;;;;;;5020914;28;20183;-38
2023/05/02 09:58:41;;;;;;;20.08;16.88;;;16.10;99.90;;;;;;5010831;28;20195;-41
2023/05/02 10:01:18;;;;;;;17.90;15.93;;;16.30;99.90;;;;;;4988098;28;20284;-40
2023/05/02 10:03:48;;;;;;;22.17;19.77;;;16.40;99.90;;;;;;5008183;28;20186;-41
2023/05/02 10:06:19;;;;;;;22.38;19.98;;;16.30;99.90;;;;;;4992837;28;20218;-38
2023/05/02 10:08:46;;;;;;;19.00;17.10;;;16.50;99.90;;;;;;4983664;28;20187;-40
2023/05/02 10:11:12;;;;;;;16.67;14.68;;;16.70;99.90;;;;;;5015691;28;20208;-38
2023/05/02 10:13:41;;;;;;;14.55;13.15;;;16.90;99.90;;;;;;5014818;28;20176;-39
2023/05/02 10:16:09;;;;;;;17.48;15.65;;;17.10;99.90;;;;;;4986474;28;20190;-39
2023/05/02 10:18:57;;;;;;;17.23;13.95;;;17.20;99.90;;;;;;4980693;28;20184;-39
2023/05/02 10:21:26;;;;;;;18.73;16.33;;;17.20;99.90;;;;;;4992016;28;20314;-39
2023/05/02 10:23:53;;;;;;;19.52;17.38;;;17.20;99.90;;;;;;5007932;28;20188;-38
2023/05/02 10:26:22;;;;;;;18.55;16.67;;;17.10;99.90;;;;;;4993427;28;20204;-38
2023/05/02 10:28:52;;;;;;;20.05;18.00;;;16.80;99.90;;;;;;5020502;28;20187;-39
2023/05/02 10:31:21;;;;;;;18.05;16.20;;;16.80;99.90;;;;;;4991458;28;20196;-41
2023/05/02 10:33:51;;;;;;;19.52;16.40;;;16.90;99.90;;;;;;4989962;28;20184;-38
2023/05/02 10:36:21;;;;;;;17.85;15.98;;;17.00;99.90;;;;;;4993862;28;20662;-37
2023/05/02 10:38:47;;;;;;;18.67;16.77;;;17.00;99.90;;;;;;5011388;28;20192;-39
2023/05/02 10:41:22;;;;;;;19.63;17.60;;;17.00;99.90;;;;;;4993269;28;20667;-38
2023/05/02 10:43:50;;;;;;;17.60;15.90;;;16.70;99.90;;;;;;4986835;28;20184;-43
2023/05/02 10:46:41;;;;;;;18.67;16.25;;;16.40;99.90;;;;;;5028178;28;20211;-40
2023/05/02 10:49:11;;;;;;;19.20;17.17;;;16.30;99.90;;;;;;5010715;28;20187;-42
2023/05/02 10:51:41;;;;;;;21.45;19.17;;;16.10;99.90;;;;;;5015421;28;20296;-43
2023/05/02 10:54:16;;;;;;;21.10;18.90;;;15.90;99.90;;;;;;4981037;28;20238;-44
2023/05/02 10:57:04;;;;;;;20.08;17.90;;;15.70;99.90;;;;;;4999933;28;20179;-41
2023/05/02 10:59:41;;;;;;;22.50;17.67;;;15.60;99.90;;;;;;5000481;28;20190;-38
2023/05/02 11:02:22;;;;;;;22.77;20.33;;;15.60;99.90;;;;;;4992065;28;20215;-40
2023/05/02 11:04:57;;;;;;;23.60;18.90;;;15.70;99.90;;;;;;4975158;28;20724;-40
2023/05/02 11:07:23;;;;;;;19.87;17.73;;;15.80;99.90;;;;;;4974931;28;20203;-41
2023/05/02 11:09:49;;;;;;;21.88;18.92;;;16.20;99.90;;;;;;4993167;28;20267;-42
2023/05/02 11:12:48;;;;;;;21.83;19.43;;;16.50;99.90;;;;;;5024755;28;20211;-41
2023/05/02 11:15:39;;;;;;;19.10;16.85;;;16.60;99.90;;;;;;4976835;28;20563;-42
2023/05/02 11:18:14;;;;;;;16.92;15.07;;;17.10;99.90;;;;;;5001614;28;20296;-41
2023/05/02 11:20:44;;;;;;;17.17;15.48;;;17.60;99.90;;;;;;4994581;28;20650;-39
2023/05/02 11:23:16;;;;;;;19.95;17.85;;;18.10;99.90;;;;;;4976877;28;20195;-40
2023/05/02 11:25:55;;;;;;;16.55;14.90;;;18.60;99.90;;;;;;4978759;28;20286;-40
2023/05/02 11:28:40;;;;;;;20.05;17.95;;;19.00;99.90;;;;;;5016006;28;20184;-40
2023/05/02 11:31:28;;;;;;;16.90;15.20;;;19.30;99.90;;;;;;5024507;28;20271;-39
2023/05/02 11:34:00;;;;;;;18.13;16.23;;;19.40;99.90;;;;;;4975581;28;20191;-41
2023/05/02 11:36:33;;;;;;;16.77;15.00;;;19.10;99.90;;;;;;4983733;28;20190;-38
2023/05/02 11:39:01;;;;;;;14.57;13.07;;;19.00;99.90;;;;;;4993937;28;20184;-39
2023/05/02 11:41:40;;;;;;;15.88;13.95;;;19.20;99.90;;;;;;4981166;28;20254;-40
2023/05/02 11:44:08;;;;;;;13.57;12.18;;;18.70;99.90;;;;;;4981882;28;20187;-39
2023/05/02 11:46:41;;;;;;;12.18;11.05;;;18.80;99.90;;;;;;4980224;28;20200;-37
2023/05/02 11:49:07;;;;;;;10.75;9.57;;;18.20;99.90;;;;;;4975215;28;20172;-38
2023/05/02 11:51:35;;;;;;;10.48;9.38;;;17.90;99.90;;;;;;4975430;28;20200;-37
2023/05/02 11:54:02;;;;;;;9.93;9.00;;;17.90;99.90;;;;;;4992999;28;20215;-40
2023/05/02 11:56:28;;;;;;;8.90;8.00;;;17.60;99.90;;;;;;4973608;28;20640;-38
2023/05/02 11:58:59;;;;;;;8.75;7.85;;;17.50;99.90;;;;;;4982021;28;20195;-43
2023/05/02 12:01:27;;;;;;;8.30;7.50;;;17.40;99.90;;;;;;5022415;28;20211;-40
2023/05/02 12:04:06;;;;;;;7.97;7.18;;;17.40;99.90;;;;;;4992988;28;20187;-38
2023/05/02 12:06:34;;;;;;;11.13;8.45;;;17.40;99.90;;;;;;4984807;28;20255;-41
2023/05/02 12:09:08;;;;;;;9.43;8.48;;;17.50;99.90;;;;;;5007062;28;20195;-38
2023/05/02 12:11:37;;;;;;;10.13;9.10;;;17.80;99.90;;;;;;4991648;28;20207;-38
2023/05/02 12:14:05;;;;;;;10.73;9.55;;;18.30;99.90;;;;;;5006738;28;20219;-40
2023/05/02 12:16:32;;;;;;;10.48;8.23;;;18.60;99.90;;;;;;5006501;28;20180;-39
2023/05/02 12:18:59;;;;;;;9.60;8.18;;;18.90;99.90;;;;;;4986679;28;20191;-40
2023/05/02 12:21:29;;;;;;;13.43;12.07;;;19.30;99.90;;;;;;4988344;28;20210;-39
2023/05/02 12:24:00;;;;;;;11.73;10.52;;;19.70;99.90;;;;;;5019552;28;20223;-37
2023/05/02 12:26:31;;;;;;;10.85;9.75;;;19.20;99.90;;;;;;4976442;28;20222;-38
2023/05/02 12:28:58;;;;;;;10.27;9.27;;;18.70;99.90;;;;;;4989446;28;20208;-38
2023/05/02 12:31:30;;;;;;;8.85;8.00;;;18.30;99.90;;;;;;5014961;28;20223;-39
2023/05/02 12:34:00;;;;;;;8.95;8.05;;;17.90;99.90;;;;;;4976923;28;20266;-39
2023/05/02 12:36:28;;;;;;;9.60;8.45;;;17.60;99.90;;;;;;4977502;28;20203;-38
2023/05/02 12:38:58;;;;;;;8.88;7.95;;;17.60;99.90;;;;;;4990453;28;20187;-39
2023/05/02 12:41:37;;;;;;;9.25;6.63;;;17.90;99.90;;;;;;5007985;28;20207;-38
2023/05/02 12:44:05;;;;;;;9.48;7.68;;;18.50;99.90;;;;;;5023696;28;20214;-39
2023/05/02 12:46:37;;;;;;;8.90;7.90;;;18.90;99.90;;;;;;4989890;28;20262;-40
2023/05/02 12:49:11;;;;;;;8.10;7.32;;;18.90;99.90;;;;;;4990247;28;20194;-42
2023/05/02 12:51:39;;;;;;;9.88;8.88;;;19.30;99.90;;;;;;4964204;28;20199;-39
2023/05/02 12:54:06;;;;;;;8.27;7.22;;;19.30;99.90;;;;;;5023630;28;20698;-40
2023/05/02 12:56:38;;;;;;;10.40;8.50;;;19.50;99.90;;;;;;4993682;28;20187;-40
2023/05/02 12:59:06;;;;;;;9.07;7.72;;;19.70;99.90;;;;;;4991014;28;20264;-38
2023/05/02 13:01:33;;;;;;;8.15;5.93;;;19.80;99.90;;;;;;4997115;28;20200;-38
2023/05/02 13:03:59;;;;;;;10.48;9.20;;;20.30;99.90;;;;;;4988382;28;20196;-38
2023/05/02 13:06:25;;;;;;;9.45;7.90;;;20.00;99.90;;;;;;4992498;28;20210;-36
2023/05/02 13:08:51;;;;;;;9.15;8.23;;;19.70;99.90;;;;;;4978199;28;20286;-36
2023/05/02 13:11:17;;;;;;;12.15;10.77;;;19.10;99.90;;;;;;4997361;28;20203;-35
2023/05/02 13:13:43;;;;;;;11.82;10.73;;;18.40;99.90;;;;;;5000417;28;20190;-34
2023/05/02 13:16:09;;;;;;;13.18;11.20;;;18.00;99.90;;;;;;4999613;28;20184;-36
2023/05/02 13:18:37;;;;;;;13.85;12.48;;;17.90;99.90;;;;;;5007523;28;20210;-35